Etusivu
METAR-TAF:

METAR-TAF

Lentoasemat :

Linguère, Senegal

Leveyspiiri: 15-23N, Pituuspiiri: 015-07W, korkeus merenpinnasta: 20 m

Tämänhetkinen sää

Tämä raportti tehtiin 20 minuuttia sitten, kello 19.00 UTC
Tuuli 4 kn lounaasta
Lämpötila 34°C
Kosteus 56%
Ilmanpaine 1008 hPa
Näkyvyys 10 km tai enemmän
Hajanaisia pilviä 1300 ft:n korkeudessa
Hajonneita pilviä 10000 ft:n korkeudessa

METAR: GOOG 221900Z 22004KT 9999 SCT013 BKN100 34/24 Q1008

Aika: 19:20 (19:20 UTC)


TAF: puuttuu

Säähavainnot ja -ennusteet yli 4000 lentoasemalta (METAR- ja TAF-raportit).

Käytössä olevat sääasemat on merkitty karttaan keltaisilla ja punaisilla pisteillä.

Aseta hiiri pisteen päälle nähdäksesi sääaseman nimen.

Klikkaa sitten nähdäksesi säähavainnot ja -ennusteet.

Kartan vaihtaminen: klikkaa mustalla rastilla varustettuja vihreitä pisteitä, niin voit zoomata sisään; viivalla varustettua vihreää pistettä, niin voit zoomata ulos tai vihreitä nuolia, niin pääset viereisille kartoille.


METAR-TAF: